sensor_id;sensor_type;location;lat;lon;timestamp;temperature;humidity
56172;DHT22;42052;41.634;-0.946;2022-12-29T00:02:04;22.70;44.80
56172;DHT22;42052;41.634;-0.946;2022-12-29T00:04:30;22.70;44.90
56172;DHT22;42052;41.634;-0.946;2022-12-29T00:06:56;22.80;45.00
56172;DHT22;42052;41.634;-0.946;2022-12-29T00:09:21;22.70;45.00
56172;DHT22;42052;41.634;-0.946;2022-12-29T00:11:47;22.70;45.10
56172;DHT22;42052;41.634;-0.946;2022-12-29T00:14:13;22.70;45.00
56172;DHT22;42052;41.634;-0.946;2022-12-29T00:16:58;22.70;45.10
56172;DHT22;42052;41.634;-0.946;2022-12-29T00:19:23;22.70;45.10
56172;DHT22;42052;41.634;-0.946;2022-12-29T00:22:11;22.70;45.20
56172;DHT22;42052;41.634;-0.946;2022-12-29T00:24:55;22.70;45.20
56172;DHT22;42052;41.634;-0.946;2022-12-29T00:27:30;22.70;45.20
56172;DHT22;42052;41.634;-0.946;2022-12-29T00:30:35;22.70;45.40
56172;DHT22;42052;41.634;-0.946;2022-12-29T00:33:22;22.70;45.40
56172;DHT22;42052;41.634;-0.946;2022-12-29T00:36:27;22.70;45.50
56172;DHT22;42052;41.634;-0.946;2022-12-29T00:38:58;22.70;45.50
56172;DHT22;42052;41.634;-0.946;2022-12-29T00:41:44;22.70;45.50
56172;DHT22;42052;41.634;-0.946;2022-12-29T00:44:28;22.60;45.50
56172;DHT22;42052;41.634;-0.946;2022-12-29T00:46:54;22.60;45.50
56172;DHT22;42052;41.634;-0.946;2022-12-29T00:49:20;22.60;45.50
56172;DHT22;42052;41.634;-0.946;2022-12-29T00:52:09;22.60;45.50
56172;DHT22;42052;41.634;-0.946;2022-12-29T00:54:39;22.60;45.50
56172;DHT22;42052;41.634;-0.946;2022-12-29T00:57:07;22.60;45.50
56172;DHT22;42052;41.634;-0.946;2022-12-29T00:59:38;22.60;45.70
56172;DHT22;42052;41.634;-0.946;2022-12-29T01:02:04;22.60;45.60
56172;DHT22;42052;41.634;-0.946;2022-12-29T01:04:30;22.60;45.60
56172;DHT22;42052;41.634;-0.946;2022-12-29T01:06:56;22.60;45.60
56172;DHT22;42052;41.634;-0.946;2022-12-29T01:09:22;22.60;45.50
56172;DHT22;42052;41.634;-0.946;2022-12-29T01:12:07;22.60;45.60
56172;DHT22;42052;41.634;-0.946;2022-12-29T01:14:33;22.70;45.60
56172;DHT22;42052;41.634;-0.946;2022-12-29T01:16:59;22.60;45.50
56172;DHT22;42052;41.634;-0.946;2022-12-29T01:19:25;22.70;45.40
56172;DHT22;42052;41.634;-0.946;2022-12-29T01:21:51;22.70;45.20
56172;DHT22;42052;41.634;-0.946;2022-12-29T01:24:18;22.70;45.00
56172;DHT22;42052;41.634;-0.946;2022-12-29T01:26:45;22.70;45.00
56172;DHT22;42052;41.634;-0.946;2022-12-29T01:29:11;22.70;45.00
56172;DHT22;42052;41.634;-0.946;2022-12-29T01:31:37;22.70;45.00
56172;DHT22;42052;41.634;-0.946;2022-12-29T01:34:03;22.70;45.00
56172;DHT22;42052;41.634;-0.946;2022-12-29T01:36:29;22.70;45.00
56172;DHT22;42052;41.634;-0.946;2022-12-29T01:38:55;22.70;45.20
56172;DHT22;42052;41.634;-0.946;2022-12-29T01:41:21;22.70;45.30
56172;DHT22;42052;41.634;-0.946;2022-12-29T01:43:53;22.70;45.50
56172;DHT22;42052;41.634;-0.946;2022-12-29T01:46:22;22.70;45.50
56172;DHT22;42052;41.634;-0.946;2022-12-29T01:48:52;22.70;45.50
56172;DHT22;42052;41.634;-0.946;2022-12-29T01:51:22;22.70;45.40
56172;DHT22;42052;41.634;-0.946;2022-12-29T01:53:48;22.70;45.20
56172;DHT22;42052;41.634;-0.946;2022-12-29T01:56:17;22.60;45.10
56172;DHT22;42052;41.634;-0.946;2022-12-29T01:58:46;22.60;45.50
56172;DHT22;42052;41.634;-0.946;2022-12-29T02:01:14;22.60;45.50
56172;DHT22;42052;41.634;-0.946;2022-12-29T02:03:41;22.60;45.40
56172;DHT22;42052;41.634;-0.946;2022-12-29T02:06:23;22.60;45.50
56172;DHT22;42052;41.634;-0.946;2022-12-29T02:08:52;22.60;45.40
56172;DHT22;42052;41.634;-0.946;2022-12-29T02:11:19;22.60;45.40
56172;DHT22;42052;41.634;-0.946;2022-12-29T02:13:46;22.60;45.40
56172;DHT22;42052;41.634;-0.946;2022-12-29T02:16:26;22.60;45.30
56172;DHT22;42052;41.634;-0.946;2022-12-29T02:46:10;22.50;45.20
56172;DHT22;42052;41.634;-0.946;2022-12-29T02:48:43;22.50;45.10
56172;DHT22;42052;41.634;-0.946;2022-12-29T02:51:18;22.50;45.10
56172;DHT22;42052;41.634;-0.946;2022-12-29T02:53:45;22.50;45.20
56172;DHT22;42052;41.634;-0.946;2022-12-29T02:56:30;22.50;45.10
56172;DHT22;42052;41.634;-0.946;2022-12-29T02:58:56;22.50;45.10
56172;DHT22;42052;41.634;-0.946;2022-12-29T03:01:45;22.50;45.10
56172;DHT22;42052;41.634;-0.946;2022-12-29T03:04:43;22.50;45.00
56172;DHT22;42052;41.634;-0.946;2022-12-29T03:12:31;22.40;45.00
56172;DHT22;42052;41.634;-0.946;2022-12-29T03:15:22;22.40;45.00
56172;DHT22;42052;41.634;-0.946;2022-12-29T03:18:15;22.50;45.20
56172;DHT22;42052;41.634;-0.946;2022-12-29T03:20:57;22.40;44.90
56172;DHT22;42052;41.634;-0.946;2022-12-29T03:23:28;22.50;45.00
56172;DHT22;42052;41.634;-0.946;2022-12-29T03:25:57;22.40;44.90
56172;DHT22;42052;41.634;-0.946;2022-12-29T03:28:29;22.40;45.10
56172;DHT22;42052;41.634;-0.946;2022-12-29T03:30:57;22.40;45.00
56172;DHT22;42052;41.634;-0.946;2022-12-29T03:33:26;22.40;45.00
56172;DHT22;42052;41.634;-0.946;2022-12-29T03:35:58;22.40;45.00
56172;DHT22;42052;41.634;-0.946;2022-12-29T03:38:31;22.40;45.00
56172;DHT22;42052;41.634;-0.946;2022-12-29T03:41:02;22.40;44.90
56172;DHT22;42052;41.634;-0.946;2022-12-29T03:43:29;22.40;44.60
56172;DHT22;42052;41.634;-0.946;2022-12-29T03:45:55;22.40;44.70
56172;DHT22;42052;41.634;-0.946;2022-12-29T03:48:21;22.30;44.70
56172;DHT22;42052;41.634;-0.946;2022-12-29T03:50:46;22.40;44.80
56172;DHT22;42052;41.634;-0.946;2022-12-29T03:53:12;22.40;44.80
56172;DHT22;42052;41.634;-0.946;2022-12-29T03:55:38;22.40;44.70
56172;DHT22;42052;41.634;-0.946;2022-12-29T03:58:04;22.40;44.80
56172;DHT22;42052;41.634;-0.946;2022-12-29T04:00:30;22.40;44.80
56172;DHT22;42052;41.634;-0.946;2022-12-29T04:02:55;22.40;44.80
56172;DHT22;42052;41.634;-0.946;2022-12-29T04:05:21;22.40;44.90
56172;DHT22;42052;41.634;-0.946;2022-12-29T04:07:47;22.30;44.70
56172;DHT22;42052;41.634;-0.946;2022-12-29T04:10:13;22.40;44.80
56172;DHT22;42052;41.634;-0.946;2022-12-29T04:12:39;22.40;45.50
56172;DHT22;42052;41.634;-0.946;2022-12-29T04:15:09;22.30;44.60
56172;DHT22;42052;41.634;-0.946;2022-12-29T04:17:35;22.30;44.60
56172;DHT22;42052;41.634;-0.946;2022-12-29T04:20:00;22.30;44.70
56172;DHT22;42052;41.634;-0.946;2022-12-29T04:22:45;22.30;44.70
56172;DHT22;42052;41.634;-0.946;2022-12-29T04:25:10;22.30;44.70
56172;DHT22;42052;41.634;-0.946;2022-12-29T04:27:36;22.30;44.90
56172;DHT22;42052;41.634;-0.946;2022-12-29T04:30:02;22.30;44.70
56172;DHT22;42052;41.634;-0.946;2022-12-29T04:32:28;22.30;44.70
56172;DHT22;42052;41.634;-0.946;2022-12-29T04:34:54;22.30;44.70
56172;DHT22;42052;41.634;-0.946;2022-12-29T04:37:19;22.30;44.70
56172;DHT22;42052;41.634;-0.946;2022-12-29T04:39:45;22.30;44.70
56172;DHT22;42052;41.634;-0.946;2022-12-29T04:42:11;22.30;44.50
56172;DHT22;42052;41.634;-0.946;2022-12-29T04:44:36;22.30;44.60
56172;DHT22;42052;41.634;-0.946;2022-12-29T04:47:02;22.30;44.60
56172;DHT22;42052;41.634;-0.946;2022-12-29T04:49:28;22.30;44.50
56172;DHT22;42052;41.634;-0.946;2022-12-29T04:51:54;22.30;44.50
56172;DHT22;42052;41.634;-0.946;2022-12-29T04:54:19;22.30;44.60
56172;DHT22;42052;41.634;-0.946;2022-12-29T04:56:45;22.30;44.60
56172;DHT22;42052;41.634;-0.946;2022-12-29T04:59:11;22.30;44.50
56172;DHT22;42052;41.634;-0.946;2022-12-29T05:01:36;22.30;44.50
56172;DHT22;42052;41.634;-0.946;2022-12-29T05:04:02;22.30;44.50
56172;DHT22;42052;41.634;-0.946;2022-12-29T05:06:28;22.30;44.60
56172;DHT22;42052;41.634;-0.946;2022-12-29T05:08:54;22.30;44.60
56172;DHT22;42052;41.634;-0.946;2022-12-29T05:11:19;22.30;44.70
56172;DHT22;42052;41.634;-0.946;2022-12-29T05:13:46;22.30;45.00
56172;DHT22;42052;41.634;-0.946;2022-12-29T05:16:12;22.30;45.50
56172;DHT22;42052;41.634;-0.946;2022-12-29T05:18:38;22.30;45.50
56172;DHT22;42052;41.634;-0.946;2022-12-29T05:21:04;22.30;45.50
56172;DHT22;42052;41.634;-0.946;2022-12-29T05:23:29;22.30;45.50
56172;DHT22;42052;41.634;-0.946;2022-12-29T05:25:55;22.30;45.50
56172;DHT22;42052;41.634;-0.946;2022-12-29T05:28:21;22.30;45.40
56172;DHT22;42052;41.634;-0.946;2022-12-29T05:30:50;22.30;45.40
56172;DHT22;42052;41.634;-0.946;2022-12-29T05:33:17;22.30;45.40
56172;DHT22;42052;41.634;-0.946;2022-12-29T05:35:43;22.30;45.40
56172;DHT22;42052;41.634;-0.946;2022-12-29T05:38:09;22.30;45.40
56172;DHT22;42052;41.634;-0.946;2022-12-29T05:40:35;22.30;45.30
56172;DHT22;42052;41.634;-0.946;2022-12-29T05:43:00;22.30;45.30
56172;DHT22;42052;41.634;-0.946;2022-12-29T05:45:26;22.30;45.30
56172;DHT22;42052;41.634;-0.946;2022-12-29T05:47:52;22.30;45.30
56172;DHT22;42052;41.634;-0.946;2022-12-29T05:50:17;22.30;45.10
56172;DHT22;42052;41.634;-0.946;2022-12-29T05:52:43;22.30;45.20
56172;DHT22;42052;41.634;-0.946;2022-12-29T05:55:09;22.30;45.20
56172;DHT22;42052;41.634;-0.946;2022-12-29T05:57:35;22.30;45.10
56172;DHT22;42052;41.634;-0.946;2022-12-29T06:00:02;22.30;45.00
56172;DHT22;42052;41.634;-0.946;2022-12-29T06:02:28;22.30;45.00
56172;DHT22;42052;41.634;-0.946;2022-12-29T06:04:54;22.30;45.00
56172;DHT22;42052;41.634;-0.946;2022-12-29T06:07:20;22.30;44.90
56172;DHT22;42052;41.634;-0.946;2022-12-29T06:09:45;22.30;44.90
56172;DHT22;42052;41.634;-0.946;2022-12-29T06:12:11;22.30;45.00
56172;DHT22;42052;41.634;-0.946;2022-12-29T06:14:37;22.30;45.70
56172;DHT22;42052;41.634;-0.946;2022-12-29T06:17:06;22.30;44.90
56172;DHT22;42052;41.634;-0.946;2022-12-29T06:19:32;22.30;45.00
56172;DHT22;42052;41.634;-0.946;2022-12-29T06:21:58;22.30;44.90
56172;DHT22;42052;41.634;-0.946;2022-12-29T06:24:23;22.30;44.90
56172;DHT22;42052;41.634;-0.946;2022-12-29T06:26:49;22.30;44.90
56172;DHT22;42052;41.634;-0.946;2022-12-29T06:29:15;22.30;45.00
56172;DHT22;42052;41.634;-0.946;2022-12-29T06:31:43;22.30;45.20
56172;DHT22;42052;41.634;-0.946;2022-12-29T06:34:11;22.30;45.50
56172;DHT22;42052;41.634;-0.946;2022-12-29T06:36:38;22.30;45.40
56172;DHT22;42052;41.634;-0.946;2022-12-29T06:39:04;22.30;45.40
56172;DHT22;42052;41.634;-0.946;2022-12-29T06:41:30;22.30;45.40
56172;DHT22;42052;41.634;-0.946;2022-12-29T06:43:55;22.30;45.40
56172;DHT22;42052;41.634;-0.946;2022-12-29T06:46:21;22.30;45.30
56172;DHT22;42052;41.634;-0.946;2022-12-29T06:48:47;22.30;45.20
56172;DHT22;42052;41.634;-0.946;2022-12-29T06:51:12;22.30;45.20
56172;DHT22;42052;41.634;-0.946;2022-12-29T06:53:38;22.30;45.20
56172;DHT22;42052;41.634;-0.946;2022-12-29T06:56:04;22.30;45.10
56172;DHT22;42052;41.634;-0.946;2022-12-29T06:58:30;22.30;45.20
56172;DHT22;42052;41.634;-0.946;2022-12-29T07:00:56;22.30;45.20
56172;DHT22;42052;41.634;-0.946;2022-12-29T07:03:22;22.30;45.30
56172;DHT22;42052;41.634;-0.946;2022-12-29T07:05:47;22.30;45.30
56172;DHT22;42052;41.634;-0.946;2022-12-29T07:08:13;22.30;45.40
56172;DHT22;42052;41.634;-0.946;2022-12-29T07:10:39;22.30;45.30
56172;DHT22;42052;41.634;-0.946;2022-12-29T07:13:05;22.30;45.20
56172;DHT22;42052;41.634;-0.946;2022-12-29T07:15:34;22.30;45.20
56172;DHT22;42052;41.634;-0.946;2022-12-29T07:17:59;22.30;45.20
56172;DHT22;42052;41.634;-0.946;2022-12-29T07:20:26;22.30;45.10
56172;DHT22;42052;41.634;-0.946;2022-12-29T07:22:51;22.30;45.00
56172;DHT22;42052;41.634;-0.946;2022-12-29T07:25:17;22.30;45.00
56172;DHT22;42052;41.634;-0.946;2022-12-29T07:27:43;22.30;45.00
56172;DHT22;42052;41.634;-0.946;2022-12-29T07:30:09;22.30;45.00
56172;DHT22;42052;41.634;-0.946;2022-12-29T07:32:35;22.30;44.90
56172;DHT22;42052;41.634;-0.946;2022-12-29T07:35:01;22.30;44.90
56172;DHT22;42052;41.634;-0.946;2022-12-29T07:37:27;22.30;44.90
56172;DHT22;42052;41.634;-0.946;2022-12-29T07:39:53;22.30;44.90
56172;DHT22;42052;41.634;-0.946;2022-12-29T07:42:18;22.30;44.80
56172;DHT22;42052;41.634;-0.946;2022-12-29T07:44:44;22.30;44.90
56172;DHT22;42052;41.634;-0.946;2022-12-29T07:47:10;22.20;44.80
56172;DHT22;42052;41.634;-0.946;2022-12-29T07:49:36;22.30;44.80
56172;DHT22;42052;41.634;-0.946;2022-12-29T07:52:01;22.30;44.80
56172;DHT22;42052;41.634;-0.946;2022-12-29T07:54:27;22.30;44.70
56172;DHT22;42052;41.634;-0.946;2022-12-29T07:56:53;22.30;44.70
56172;DHT22;42052;41.634;-0.946;2022-12-29T07:59:19;22.30;44.90
56172;DHT22;42052;41.634;-0.946;2022-12-29T08:01:45;22.30;44.70
56172;DHT22;42052;41.634;-0.946;2022-12-29T08:04:11;22.30;44.60
56172;DHT22;42052;41.634;-0.946;2022-12-29T08:06:37;22.30;44.60
56172;DHT22;42052;41.634;-0.946;2022-12-29T08:09:03;22.30;44.50
56172;DHT22;42052;41.634;-0.946;2022-12-29T08:11:29;22.20;44.40
56172;DHT22;42052;41.634;-0.946;2022-12-29T08:13:55;22.20;44.50
56172;DHT22;42052;41.634;-0.946;2022-12-29T08:16:20;22.30;44.40
56172;DHT22;42052;41.634;-0.946;2022-12-29T08:18:46;22.20;44.40
56172;DHT22;42052;41.634;-0.946;2022-12-29T08:21:12;22.20;44.50
56172;DHT22;42052;41.634;-0.946;2022-12-29T08:23:38;22.20;44.40
56172;DHT22;42052;41.634;-0.946;2022-12-29T08:26:05;22.20;44.40
56172;DHT22;42052;41.634;-0.946;2022-12-29T08:28:31;22.20;44.50
56172;DHT22;42052;41.634;-0.946;2022-12-29T08:30:58;22.20;44.50
56172;DHT22;42052;41.634;-0.946;2022-12-29T08:33:24;22.20;44.50
56172;DHT22;42052;41.634;-0.946;2022-12-29T08:35:50;22.20;44.30
56172;DHT22;42052;41.634;-0.946;2022-12-29T08:38:16;22.20;44.40
56172;DHT22;42052;41.634;-0.946;2022-12-29T08:40:43;22.20;44.40
56172;DHT22;42052;41.634;-0.946;2022-12-29T08:43:09;22.20;44.40
56172;DHT22;42052;41.634;-0.946;2022-12-29T08:45:35;22.20;44.30
56172;DHT22;42052;41.634;-0.946;2022-12-29T08:48:01;22.10;44.20
56172;DHT22;42052;41.634;-0.946;2022-12-29T08:50:26;22.20;44.20
56172;DHT22;42052;41.634;-0.946;2022-12-29T08:52:52;22.10;44.20
56172;DHT22;42052;41.634;-0.946;2022-12-29T08:55:18;22.10;44.30
56172;DHT22;42052;41.634;-0.946;2022-12-29T08:57:43;22.10;44.30
56172;DHT22;42052;41.634;-0.946;2022-12-29T09:00:10;22.10;44.10
56172;DHT22;42052;41.634;-0.946;2022-12-29T09:02:36;22.10;43.70
56172;DHT22;42052;41.634;-0.946;2022-12-29T09:05:02;22.10;44.30
56172;DHT22;42052;41.634;-0.946;2022-12-29T09:07:28;22.10;44.70
56172;DHT22;42052;41.634;-0.946;2022-12-29T09:09:54;22.10;44.40
56172;DHT22;42052;41.634;-0.946;2022-12-29T09:12:19;22.10;44.50
56172;DHT22;42052;41.634;-0.946;2022-12-29T09:14:48;22.10;43.90
56172;DHT22;42052;41.634;-0.946;2022-12-29T09:17:14;22.10;44.00
56172;DHT22;42052;41.634;-0.946;2022-12-29T09:19:58;22.10;44.20
56172;DHT22;42052;41.634;-0.946;2022-12-29T09:22:23;22.00;44.20
56172;DHT22;42052;41.634;-0.946;2022-12-29T09:24:49;22.00;44.20
56172;DHT22;42052;41.634;-0.946;2022-12-29T09:27:15;22.00;44.30
56172;DHT22;42052;41.634;-0.946;2022-12-29T09:29:41;22.00;44.30
56172;DHT22;42052;41.634;-0.946;2022-12-29T09:32:06;22.00;44.30
56172;DHT22;42052;41.634;-0.946;2022-12-29T09:34:33;22.00;44.30
56172;DHT22;42052;41.634;-0.946;2022-12-29T09:36:58;22.00;44.40
56172;DHT22;42052;41.634;-0.946;2022-12-29T09:39:24;22.00;44.30
56172;DHT22;42052;41.634;-0.946;2022-12-29T09:47:29;22.00;44.10
56172;DHT22;42052;41.634;-0.946;2022-12-29T09:53:04;22.00;44.20
56172;DHT22;42052;41.634;-0.946;2022-12-29T09:55:26;21.90;44.20
56172;DHT22;42052;41.634;-0.946;2022-12-29T09:58:05;22.00;44.60
56172;DHT22;42052;41.634;-0.946;2022-12-29T10:01:06;21.90;44.20
56172;DHT22;42052;41.634;-0.946;2022-12-29T10:06:46;21.90;44.40
56172;DHT22;42052;41.634;-0.946;2022-12-29T10:12:22;21.90;44.30
56172;DHT22;42052;41.634;-0.946;2022-12-29T10:23:19;21.90;44.40
56172;DHT22;42052;41.634;-0.946;2022-12-29T10:25:38;21.90;44.40
56172;DHT22;42052;41.634;-0.946;2022-12-29T10:30:57;21.90;44.40
56172;DHT22;42052;41.634;-0.946;2022-12-29T10:33:48;21.90;44.50
56172;DHT22;42052;41.634;-0.946;2022-12-29T10:36:22;22.00;44.50
56172;DHT22;42052;41.634;-0.946;2022-12-29T10:39:05;21.90;44.40
56172;DHT22;42052;41.634;-0.946;2022-12-29T10:41:41;21.90;44.50
56172;DHT22;42052;41.634;-0.946;2022-12-29T10:44:13;21.90;44.40
56172;DHT22;42052;41.634;-0.946;2022-12-29T10:46:40;21.90;44.50
56172;DHT22;42052;41.634;-0.946;2022-12-29T10:49:14;21.90;44.50
56172;DHT22;42052;41.634;-0.946;2022-12-29T10:51:44;21.90;44.50
56172;DHT22;42052;41.634;-0.946;2022-12-29T10:54:23;21.90;44.50
56172;DHT22;42052;41.634;-0.946;2022-12-29T10:57:00;21.90;44.50
56172;DHT22;42052;41.634;-0.946;2022-12-29T10:59:34;21.90;44.40
56172;DHT22;42052;41.634;-0.946;2022-12-29T11:07:07;21.90;44.40
56172;DHT22;42052;41.634;-0.946;2022-12-29T11:09:38;21.90;44.60
56172;DHT22;42052;41.634;-0.946;2022-12-29T11:12:28;21.90;44.60
56172;DHT22;42052;41.634;-0.946;2022-12-29T11:15:15;21.90;44.60
56172;DHT22;42052;41.634;-0.946;2022-12-29T11:17:51;21.90;44.60
56172;DHT22;42052;41.634;-0.946;2022-12-29T11:22:55;21.90;44.70
56172;DHT22;42052;41.634;-0.946;2022-12-29T11:25:21;21.80;44.60
56172;DHT22;42052;41.634;-0.946;2022-12-29T11:28:03;21.80;44.60
56172;DHT22;42052;41.634;-0.946;2022-12-29T11:30:39;21.80;44.60
56172;DHT22;42052;41.634;-0.946;2022-12-29T11:33:05;21.80;44.60
56172;DHT22;42052;41.634;-0.946;2022-12-29T11:35:42;21.80;44.60
56172;DHT22;42052;41.634;-0.946;2022-12-29T11:38:36;21.80;44.60
56172;DHT22;42052;41.634;-0.946;2022-12-29T11:41:03;21.80;44.60
56172;DHT22;42052;41.634;-0.946;2022-12-29T11:43:33;21.80;44.50
56172;DHT22;42052;41.634;-0.946;2022-12-29T11:46:01;21.80;44.60
56172;DHT22;42052;41.634;-0.946;2022-12-29T11:48:33;21.80;44.50
56172;DHT22;42052;41.634;-0.946;2022-12-29T11:51:03;21.80;44.60
56172;DHT22;42052;41.634;-0.946;2022-12-29T11:53:51;21.80;44.60
56172;DHT22;42052;41.634;-0.946;2022-12-29T11:56:32;21.80;44.60
56172;DHT22;42052;41.634;-0.946;2022-12-29T11:58:58;21.80;44.50
56172;DHT22;42052;41.634;-0.946;2022-12-29T12:01:44;21.80;44.50
56172;DHT22;42052;41.634;-0.946;2022-12-29T12:04:16;21.80;44.50
56172;DHT22;42052;41.634;-0.946;2022-12-29T12:09:32;21.80;44.50
56172;DHT22;42052;41.634;-0.946;2022-12-29T12:12:01;21.80;44.50
56172;DHT22;42052;41.634;-0.946;2022-12-29T12:14:36;21.80;44.50
56172;DHT22;42052;41.634;-0.946;2022-12-29T12:17:16;21.80;44.50
56172;DHT22;42052;41.634;-0.946;2022-12-29T12:20:03;21.80;44.60
56172;DHT22;42052;41.634;-0.946;2022-12-29T12:25:17;21.80;44.50
56172;DHT22;42052;41.634;-0.946;2022-12-29T12:30:44;21.80;44.50
56172;DHT22;42052;41.634;-0.946;2022-12-29T12:33:35;21.80;44.50
56172;DHT22;42052;41.634;-0.946;2022-12-29T12:58:59;21.80;44.50
56172;DHT22;42052;41.634;-0.946;2022-12-29T13:22:24;21.80;44.50
56172;DHT22;42052;41.634;-0.946;2022-12-29T13:25:10;21.80;44.50
56172;DHT22;42052;41.634;-0.946;2022-12-29T13:31:00;21.80;44.50
56172;DHT22;42052;41.634;-0.946;2022-12-29T13:33:50;21.80;44.50
56172;DHT22;42052;41.634;-0.946;2022-12-29T13:36:51;21.80;44.50
56172;DHT22;42052;41.634;-0.946;2022-12-29T13:39:44;21.80;44.40
56172;DHT22;42052;41.634;-0.946;2022-12-29T13:42:12;21.80;44.40
56172;DHT22;42052;41.634;-0.946;2022-12-29T13:45:14;21.80;44.40
56172;DHT22;42052;41.634;-0.946;2022-12-29T13:48:19;21.80;44.50
56172;DHT22;42052;41.634;-0.946;2022-12-29T13:50:52;21.80;44.40
56172;DHT22;42052;41.634;-0.946;2022-12-29T13:56:08;21.80;44.40
56172;DHT22;42052;41.634;-0.946;2022-12-29T14:01:40;21.70;44.40
56172;DHT22;42052;41.634;-0.946;2022-12-29T14:04:22;21.70;44.40
56172;DHT22;42052;41.634;-0.946;2022-12-29T14:07:05;21.70;44.40
56172;DHT22;42052;41.634;-0.946;2022-12-29T14:09:42;21.70;44.40
56172;DHT22;42052;41.634;-0.946;2022-12-29T14:14:46;21.70;44.40
56172;DHT22;42052;41.634;-0.946;2022-12-29T14:17:16;21.70;44.20
56172;DHT22;42052;41.634;-0.946;2022-12-29T14:19:43;21.70;44.20
56172;DHT22;42052;41.634;-0.946;2022-12-29T14:22:11;21.70;44.10
56172;DHT22;42052;41.634;-0.946;2022-12-29T14:24:43;21.70;44.10
56172;DHT22;42052;41.634;-0.946;2022-12-29T14:34:53;21.80;43.80
56172;DHT22;42052;41.634;-0.946;2022-12-29T14:37:34;21.80;43.90
56172;DHT22;42052;41.634;-0.946;2022-12-29T14:42:41;21.80;44.00
56172;DHT22;42052;41.634;-0.946;2022-12-29T14:45:28;21.80;43.90
56172;DHT22;42052;41.634;-0.946;2022-12-29T14:47:55;21.80;44.00
56172;DHT22;42052;41.634;-0.946;2022-12-29T14:53:05;21.70;44.10
56172;DHT22;42052;41.634;-0.946;2022-12-29T14:55:40;21.80;44.10
56172;DHT22;42052;41.634;-0.946;2022-12-29T15:00:38;21.80;44.00
56172;DHT22;42052;41.634;-0.946;2022-12-29T15:08:17;21.70;44.10
56172;DHT22;42052;41.634;-0.946;2022-12-29T15:11:04;21.70;44.20
56172;DHT22;42052;41.634;-0.946;2022-12-29T15:13:39;21.80;44.20
56172;DHT22;42052;41.634;-0.946;2022-12-29T15:18:52;21.70;44.20
56172;DHT22;42052;41.634;-0.946;2022-12-29T15:21:24;21.80;44.20
56172;DHT22;42052;41.634;-0.946;2022-12-29T15:23:50;21.70;44.10
56172;DHT22;42052;41.634;-0.946;2022-12-29T15:26:17;21.70;44.10
56172;DHT22;42052;41.634;-0.946;2022-12-29T15:28:48;21.70;44.10
56172;DHT22;42052;41.634;-0.946;2022-12-29T15:31:18;21.70;44.20
56172;DHT22;42052;41.634;-0.946;2022-12-29T15:33:48;21.70;44.20
56172;DHT22;42052;41.634;-0.946;2022-12-29T15:36:26;21.70;44.40
56172;DHT22;42052;41.634;-0.946;2022-12-29T15:38:52;21.70;44.30
56172;DHT22;42052;41.634;-0.946;2022-12-29T15:41:32;21.70;44.30
56172;DHT22;42052;41.634;-0.946;2022-12-29T15:44:24;21.70;44.40
56172;DHT22;42052;41.634;-0.946;2022-12-29T15:46:51;21.70;44.30
56172;DHT22;42052;41.634;-0.946;2022-12-29T15:49:17;21.70;45.10
56172;DHT22;42052;41.634;-0.946;2022-12-29T15:51:44;21.70;44.30
56172;DHT22;42052;41.634;-0.946;2022-12-29T15:54:30;21.70;44.30
56172;DHT22;42052;41.634;-0.946;2022-12-29T15:56:56;21.70;44.40
56172;DHT22;42052;41.634;-0.946;2022-12-29T15:59:31;21.70;44.40
56172;DHT22;42052;41.634;-0.946;2022-12-29T16:01:59;21.70;44.30
56172;DHT22;42052;41.634;-0.946;2022-12-29T16:04:28;21.70;44.30
56172;DHT22;42052;41.634;-0.946;2022-12-29T16:07:00;21.70;44.50
56172;DHT22;42052;41.634;-0.946;2022-12-29T16:09:35;21.70;45.30
56172;DHT22;42052;41.634;-0.946;2022-12-29T16:12:13;21.70;44.50
56172;DHT22;42052;41.634;-0.946;2022-12-29T16:14:44;21.70;44.50
56172;DHT22;42052;41.634;-0.946;2022-12-29T16:17:16;21.70;44.50
56172;DHT22;42052;41.634;-0.946;2022-12-29T16:19:51;21.70;44.50
56172;DHT22;42052;41.634;-0.946;2022-12-29T16:24:59;21.70;44.60
56172;DHT22;42052;41.634;-0.946;2022-12-29T16:27:36;21.60;44.60
56172;DHT22;42052;41.634;-0.946;2022-12-29T16:30:22;21.70;44.60
56172;DHT22;42052;41.634;-0.946;2022-12-29T16:32:50;21.70;44.60
56172;DHT22;42052;41.634;-0.946;2022-12-29T16:35:25;21.60;44.70
56172;DHT22;42052;41.634;-0.946;2022-12-29T16:38:16;21.50;45.00
56172;DHT22;42052;41.634;-0.946;2022-12-29T16:40:56;21.40;45.30
56172;DHT22;42052;41.634;-0.946;2022-12-29T16:43:27;21.20;45.60
56172;DHT22;42052;41.634;-0.946;2022-12-29T16:48:34;21.10;45.90
56172;DHT22;42052;41.634;-0.946;2022-12-29T16:51:16;21.40;45.80
56172;DHT22;42052;41.634;-0.946;2022-12-29T16:53:52;21.50;45.30
56172;DHT22;42052;41.634;-0.946;2022-12-29T16:56:27;21.60;45.10
56172;DHT22;42052;41.634;-0.946;2022-12-29T16:59:08;21.60;45.00
56172;DHT22;42052;41.634;-0.946;2022-12-29T17:01:43;21.70;44.90
56172;DHT22;42052;41.634;-0.946;2022-12-29T17:04:10;21.70;44.80
56172;DHT22;42052;41.634;-0.946;2022-12-29T17:06:36;21.70;44.70
56172;DHT22;42052;41.634;-0.946;2022-12-29T17:09:10;21.70;44.60
56172;DHT22;42052;41.634;-0.946;2022-12-29T17:11:41;21.80;44.60
56172;DHT22;42052;41.634;-0.946;2022-12-29T17:14:47;21.70;44.60
56172;DHT22;42052;41.634;-0.946;2022-12-29T17:17:20;21.80;44.60
56172;DHT22;42052;41.634;-0.946;2022-12-29T17:19:54;21.80;44.60
56172;DHT22;42052;41.634;-0.946;2022-12-29T17:22:23;21.80;44.50
56172;DHT22;42052;41.634;-0.946;2022-12-29T17:24:51;21.80;44.50
56172;DHT22;42052;41.634;-0.946;2022-12-29T17:27:36;21.80;44.50
56172;DHT22;42052;41.634;-0.946;2022-12-29T17:30:12;21.80;44.50
56172;DHT22;42052;41.634;-0.946;2022-12-29T17:32:40;21.80;44.50
56172;DHT22;42052;41.634;-0.946;2022-12-29T17:35:13;21.80;44.50
56172;DHT22;42052;41.634;-0.946;2022-12-29T17:37:40;21.80;44.50
56172;DHT22;42052;41.634;-0.946;2022-12-29T17:40:09;21.80;44.50
56172;DHT22;42052;41.634;-0.946;2022-12-29T17:42:39;21.90;44.50
56172;DHT22;42052;41.634;-0.946;2022-12-29T17:45:16;21.80;44.50
56172;DHT22;42052;41.634;-0.946;2022-12-29T17:47:43;21.90;44.50
56172;DHT22;42052;41.634;-0.946;2022-12-29T17:50:20;21.90;44.50
56172;DHT22;42052;41.634;-0.946;2022-12-29T17:53:06;21.90;44.50
56172;DHT22;42052;41.634;-0.946;2022-12-29T17:55:33;21.90;44.50
56172;DHT22;42052;41.634;-0.946;2022-12-29T17:57:58;21.90;44.50
56172;DHT22;42052;41.634;-0.946;2022-12-29T18:00:28;21.90;44.60
56172;DHT22;42052;41.634;-0.946;2022-12-29T18:02:56;21.90;44.50
56172;DHT22;42052;41.634;-0.946;2022-12-29T18:05:28;21.90;44.50
56172;DHT22;42052;41.634;-0.946;2022-12-29T18:07:55;21.90;45.30
56172;DHT22;42052;41.634;-0.946;2022-12-29T18:10:23;21.90;44.50
56172;DHT22;42052;41.634;-0.946;2022-12-29T18:12:50;21.90;44.50
56172;DHT22;42052;41.634;-0.946;2022-12-29T18:15:22;21.90;44.60
56172;DHT22;42052;41.634;-0.946;2022-12-29T18:17:48;21.90;44.60